Portada
METAR-TAF:

METAR-TAF

Aeroports :

Tahití, Polinèsia Francesa

latitud: 17-33S, longitud: 149-37W, altitud: 2 m

Observació

L'informe es va fer fa 17 minuts, a les 14:00 UTC
Vent 2 kt amb direcció variable
Temperatura 25°C
Humitat 83%
Pressió 1015 hPa
Visibilitat 10 km o més

METAR: NTAA 311400Z AUTO VRB02KT 9999 NCD 25/22 Q1015 NOSIG

Hora: 04:17 (14:17 UTC)

Pronòstic

L'informe es va fer fa 3 hores i 17 minuts, a les 11:00 UTC
Pronòstic vàlid del 31 a les 12 UTC al 01 a les 18 UTC
Vent 3 kt amb direcció variable
Visibilitat 10 km o més
Escasses núvols a una alçada de 2300 ft
Probabilitat 30% :
Temporalment
l' 31 a les 21 UTC al 01 a les 01 UTC
Vent 13 kt del Nord-Est

TAF: NTAA 311100Z 3112/0118 VRB03KT 9999 FEW023 PROB30 TEMPO 3121/0101 05013KT

Observacions i pronòstics meteorològics de més de 4000 aeroports (METAR i TAF).

Les estacions disponibles són els punts grocs i vermells al mapa.

Posi el ratolí al punt desitjat per veure el nom de l'estació.

Feu clic per veure les observacions i els pronòstics meteorològics.

Per canviar el mapa: feu clic els botons verds amb una creu de color negre per apropar; al botó verd amb un guió per allunyar la imatge; o en les fletxes verdes per a mapes adjacents.


METAR-TAF: